sensor_id;sensor_type;location;lat;lon;timestamp;P1;durP1;ratioP1;P2;durP2;ratioP2
21661;SDS011;10992;48.170;8.596;2023-12-20T00:02:02;2.05;;;1.27;;
21661;SDS011;10992;48.170;8.596;2023-12-20T00:04:30;1.45;;;1.30;;
21661;SDS011;10992;48.170;8.596;2023-12-20T00:06:57;1.50;;;1.38;;
21661;SDS011;10992;48.170;8.596;2023-12-20T00:09:24;2.08;;;1.50;;
21661;SDS011;10992;48.170;8.596;2023-12-20T00:11:50;2.22;;;1.50;;
21661;SDS011;10992;48.170;8.596;2023-12-20T00:14:17;2.60;;;1.75;;
21661;SDS011;10992;48.170;8.596;2023-12-20T00:16:44;2.40;;;1.88;;
21661;SDS011;10992;48.170;8.596;2023-12-20T00:19:11;3.03;;;1.60;;
21661;SDS011;10992;48.170;8.596;2023-12-20T00:21:38;2.42;;;1.88;;
21661;SDS011;10992;48.170;8.596;2023-12-20T00:24:05;2.15;;;1.42;;
21661;SDS011;10992;48.170;8.596;2023-12-20T00:26:31;2.58;;;1.80;;
21661;SDS011;10992;48.170;8.596;2023-12-20T00:28:58;1.65;;;1.40;;
21661;SDS011;10992;48.170;8.596;2023-12-20T00:31:25;2.10;;;1.67;;
21661;SDS011;10992;48.170;8.596;2023-12-20T00:33:52;2.33;;;1.83;;
21661;SDS011;10992;48.170;8.596;2023-12-20T00:36:19;1.92;;;1.50;;
21661;SDS011;10992;48.170;8.596;2023-12-20T00:38:46;1.55;;;1.45;;
21661;SDS011;10992;48.170;8.596;2023-12-20T00:41:13;2.95;;;1.50;;
21661;SDS011;10992;48.170;8.596;2023-12-20T00:43:40;2.13;;;1.45;;
21661;SDS011;10992;48.170;8.596;2023-12-20T00:46:07;2.10;;;1.90;;
21661;SDS011;10992;48.170;8.596;2023-12-20T00:48:34;1.95;;;1.65;;
21661;SDS011;10992;48.170;8.596;2023-12-20T00:51:01;2.20;;;1.67;;
21661;SDS011;10992;48.170;8.596;2023-12-20T00:53:28;2.00;;;1.52;;
21661;SDS011;10992;48.170;8.596;2023-12-20T00:55:55;2.85;;;1.98;;
21661;SDS011;10992;48.170;8.596;2023-12-20T00:58:22;1.55;;;1.40;;
21661;SDS011;10992;48.170;8.596;2023-12-20T01:00:49;1.98;;;1.70;;
21661;SDS011;10992;48.170;8.596;2023-12-20T01:03:16;2.65;;;1.60;;
21661;SDS011;10992;48.170;8.596;2023-12-20T01:05:44;2.05;;;1.70;;
21661;SDS011;10992;48.170;8.596;2023-12-20T01:08:10;2.05;;;1.50;;
21661;SDS011;10992;48.170;8.596;2023-12-20T01:10:38;1.58;;;1.25;;
21661;SDS011;10992;48.170;8.596;2023-12-20T01:13:05;1.85;;;1.58;;
21661;SDS011;10992;48.170;8.596;2023-12-20T01:15:31;1.42;;;1.30;;
21661;SDS011;10992;48.170;8.596;2023-12-20T01:17:58;1.88;;;1.60;;
21661;SDS011;10992;48.170;8.596;2023-12-20T01:20:25;1.55;;;1.17;;
21661;SDS011;10992;48.170;8.596;2023-12-20T01:22:52;2.60;;;1.23;;
21661;SDS011;10992;48.170;8.596;2023-12-20T01:25:19;2.55;;;1.70;;
21661;SDS011;10992;48.170;8.596;2023-12-20T01:27:46;1.40;;;1.20;;
21661;SDS011;10992;48.170;8.596;2023-12-20T01:30:14;1.63;;;1.35;;
21661;SDS011;10992;48.170;8.596;2023-12-20T01:32:41;1.63;;;1.27;;
21661;SDS011;10992;48.170;8.596;2023-12-20T01:35:08;2.20;;;1.48;;
21661;SDS011;10992;48.170;8.596;2023-12-20T01:37:36;1.50;;;1.20;;
21661;SDS011;10992;48.170;8.596;2023-12-20T01:40:03;2.20;;;1.13;;
21661;SDS011;10992;48.170;8.596;2023-12-20T01:42:30;1.60;;;1.10;;
21661;SDS011;10992;48.170;8.596;2023-12-20T01:44:58;1.17;;;0.90;;
21661;SDS011;10992;48.170;8.596;2023-12-20T01:47:25;1.10;;;1.00;;
21661;SDS011;10992;48.170;8.596;2023-12-20T01:49:53;1.50;;;1.13;;
21661;SDS011;10992;48.170;8.596;2023-12-20T01:52:23;1.27;;;1.08;;
21661;SDS011;10992;48.170;8.596;2023-12-20T01:54:52;1.42;;;1.05;;
21661;SDS011;10992;48.170;8.596;2023-12-20T01:57:21;1.05;;;0.93;;
21661;SDS011;10992;48.170;8.596;2023-12-20T01:59:48;1.52;;;0.90;;
21661;SDS011;10992;48.170;8.596;2023-12-20T02:02:15;2.30;;;1.05;;
21661;SDS011;10992;48.170;8.596;2023-12-20T02:04:42;1.65;;;1.02;;
21661;SDS011;10992;48.170;8.596;2023-12-20T02:07:09;1.45;;;1.00;;
21661;SDS011;10992;48.170;8.596;2023-12-20T02:09:38;1.85;;;1.23;;
21661;SDS011;10992;48.170;8.596;2023-12-20T02:12:06;1.27;;;1.10;;
21661;SDS011;10992;48.170;8.596;2023-12-20T02:14:33;1.13;;;1.02;;
21661;SDS011;10992;48.170;8.596;2023-12-20T02:17:00;1.77;;;1.23;;
21661;SDS011;10992;48.170;8.596;2023-12-20T02:19:27;1.30;;;1.20;;
21661;SDS011;10992;48.170;8.596;2023-12-20T02:22:04;1.67;;;1.10;;
21661;SDS011;10992;48.170;8.596;2023-12-20T02:24:38;3.05;;;1.10;;
21661;SDS011;10992;48.170;8.596;2023-12-20T02:27:06;2.15;;;1.10;;
21661;SDS011;10992;48.170;8.596;2023-12-20T02:29:34;1.60;;;1.10;;
21661;SDS011;10992;48.170;8.596;2023-12-20T02:32:01;1.48;;;1.17;;
21661;SDS011;10992;48.170;8.596;2023-12-20T02:34:29;1.20;;;1.00;;
21661;SDS011;10992;48.170;8.596;2023-12-20T02:36:56;1.35;;;1.13;;
21661;SDS011;10992;48.170;8.596;2023-12-20T02:39:23;1.13;;;1.00;;
21661;SDS011;10992;48.170;8.596;2023-12-20T02:41:50;2.50;;;0.80;;
21661;SDS011;10992;48.170;8.596;2023-12-20T02:44:17;1.20;;;0.60;;
21661;SDS011;10992;48.170;8.596;2023-12-20T02:46:44;0.95;;;0.80;;
21661;SDS011;10992;48.170;8.596;2023-12-20T02:49:11;0.60;;;0.60;;
21661;SDS011;10992;48.170;8.596;2023-12-20T02:51:38;0.85;;;0.80;;
21661;SDS011;10992;48.170;8.596;2023-12-20T02:54:05;0.70;;;0.60;;
21661;SDS011;10992;48.170;8.596;2023-12-20T02:56:32;0.63;;;0.60;;
21661;SDS011;10992;48.170;8.596;2023-12-20T02:59:00;1.60;;;0.60;;
21661;SDS011;10992;48.170;8.596;2023-12-20T03:01:28;0.80;;;0.50;;
21661;SDS011;10992;48.170;8.596;2023-12-20T03:03:56;0.95;;;0.45;;
21661;SDS011;10992;48.170;8.596;2023-12-20T03:06:23;0.70;;;0.50;;
21661;SDS011;10992;48.170;8.596;2023-12-20T03:08:51;1.70;;;0.45;;
21661;SDS011;10992;48.170;8.596;2023-12-20T03:11:18;2.13;;;0.73;;
21661;SDS011;10992;48.170;8.596;2023-12-20T03:13:45;0.57;;;0.57;;
21661;SDS011;10992;48.170;8.596;2023-12-20T03:16:12;1.20;;;0.80;;
21661;SDS011;10992;48.170;8.596;2023-12-20T03:18:40;0.93;;;0.50;;
21661;SDS011;10992;48.170;8.596;2023-12-20T03:21:07;0.65;;;0.57;;
21661;SDS011;10992;48.170;8.596;2023-12-20T03:23:34;1.00;;;0.60;;
21661;SDS011;10992;48.170;8.596;2023-12-20T03:26:01;1.42;;;0.55;;
21661;SDS011;10992;48.170;8.596;2023-12-20T03:28:28;0.80;;;0.63;;
21661;SDS011;10992;48.170;8.596;2023-12-20T03:30:55;1.70;;;0.80;;
21661;SDS011;10992;48.170;8.596;2023-12-20T03:33:22;0.95;;;0.75;;
21661;SDS011;10992;48.170;8.596;2023-12-20T03:35:50;0.40;;;0.40;;
21661;SDS011;10992;48.170;8.596;2023-12-20T03:38:16;1.85;;;0.47;;
21661;SDS011;10992;48.170;8.596;2023-12-20T03:40:43;1.67;;;0.38;;
21661;SDS011;10992;48.170;8.596;2023-12-20T03:43:10;2.42;;;0.40;;
21661;SDS011;10992;48.170;8.596;2023-12-20T03:45:37;0.35;;;0.35;;
21661;SDS011;10992;48.170;8.596;2023-12-20T03:48:05;3.40;;;0.65;;
21661;SDS011;10992;48.170;8.596;2023-12-20T03:50:32;0.55;;;0.40;;
21661;SDS011;10992;48.170;8.596;2023-12-20T03:52:59;0.55;;;0.43;;
21661;SDS011;10992;48.170;8.596;2023-12-20T03:55:26;0.82;;;0.52;;
21661;SDS011;10992;48.170;8.596;2023-12-20T03:57:53;0.75;;;0.40;;
21661;SDS011;10992;48.170;8.596;2023-12-20T04:00:20;0.40;;;0.40;;
21661;SDS011;10992;48.170;8.596;2023-12-20T04:02:47;0.70;;;0.50;;
21661;SDS011;10992;48.170;8.596;2023-12-20T04:05:14;1.85;;;0.40;;
21661;SDS011;10992;48.170;8.596;2023-12-20T04:07:41;0.40;;;0.40;;
21661;SDS011;10992;48.170;8.596;2023-12-20T04:10:09;1.75;;;0.73;;
21661;SDS011;10992;48.170;8.596;2023-12-20T04:12:36;1.05;;;0.80;;
21661;SDS011;10992;48.170;8.596;2023-12-20T04:15:03;0.88;;;0.60;;
21661;SDS011;10992;48.170;8.596;2023-12-20T04:17:35;0.47;;;0.40;;
21661;SDS011;10992;48.170;8.596;2023-12-20T04:20:03;1.15;;;0.63;;
21661;SDS011;10992;48.170;8.596;2023-12-20T04:22:30;0.50;;;0.50;;
21661;SDS011;10992;48.170;8.596;2023-12-20T04:24:57;0.35;;;0.35;;
21661;SDS011;10992;48.170;8.596;2023-12-20T04:27:24;1.00;;;0.65;;
21661;SDS011;10992;48.170;8.596;2023-12-20T04:29:51;0.70;;;0.47;;
21661;SDS011;10992;48.170;8.596;2023-12-20T04:32:18;0.68;;;0.63;;
21661;SDS011;10992;48.170;8.596;2023-12-20T04:34:45;0.75;;;0.50;;
21661;SDS011;10992;48.170;8.596;2023-12-20T04:37:12;0.93;;;0.63;;
21661;SDS011;10992;48.170;8.596;2023-12-20T04:39:39;0.52;;;0.40;;
21661;SDS011;10992;48.170;8.596;2023-12-20T04:42:08;1.02;;;0.50;;
21661;SDS011;10992;48.170;8.596;2023-12-20T04:44:35;1.30;;;0.85;;
21661;SDS011;10992;48.170;8.596;2023-12-20T04:47:02;2.25;;;0.70;;
21661;SDS011;10992;48.170;8.596;2023-12-20T04:49:29;0.50;;;0.50;;
21661;SDS011;10992;48.170;8.596;2023-12-20T04:51:56;0.50;;;0.40;;
21661;SDS011;10992;48.170;8.596;2023-12-20T04:54:23;0.50;;;0.40;;
21661;SDS011;10992;48.170;8.596;2023-12-20T04:56:50;0.40;;;0.40;;
21661;SDS011;10992;48.170;8.596;2023-12-20T04:59:17;0.40;;;0.40;;
21661;SDS011;10992;48.170;8.596;2023-12-20T05:01:44;0.35;;;0.32;;
21661;SDS011;10992;48.170;8.596;2023-12-20T05:04:11;0.77;;;0.40;;
21661;SDS011;10992;48.170;8.596;2023-12-20T05:06:38;0.50;;;0.40;;
21661;SDS011;10992;48.170;8.596;2023-12-20T05:09:05;0.43;;;0.43;;
21661;SDS011;10992;48.170;8.596;2023-12-20T05:11:32;0.40;;;0.40;;
21661;SDS011;10992;48.170;8.596;2023-12-20T05:13:59;0.40;;;0.40;;
21661;SDS011;10992;48.170;8.596;2023-12-20T05:16:26;0.70;;;0.50;;
21661;SDS011;10992;48.170;8.596;2023-12-20T05:18:53;0.65;;;0.45;;
21661;SDS011;10992;48.170;8.596;2023-12-20T05:21:21;0.50;;;0.50;;
21661;SDS011;10992;48.170;8.596;2023-12-20T05:23:48;2.00;;;0.90;;
21661;SDS011;10992;48.170;8.596;2023-12-20T05:26:14;2.42;;;0.95;;
21661;SDS011;10992;48.170;8.596;2023-12-20T05:28:41;0.55;;;0.50;;
21661;SDS011;10992;48.170;8.596;2023-12-20T05:31:08;0.63;;;0.50;;
21661;SDS011;10992;48.170;8.596;2023-12-20T05:33:36;0.93;;;0.60;;
21661;SDS011;10992;48.170;8.596;2023-12-20T05:36:04;1.15;;;0.70;;
21661;SDS011;10992;48.170;8.596;2023-12-20T05:38:31;1.30;;;0.65;;
21661;SDS011;10992;48.170;8.596;2023-12-20T05:40:58;0.60;;;0.50;;
21661;SDS011;10992;48.170;8.596;2023-12-20T05:43:25;0.90;;;0.75;;
21661;SDS011;10992;48.170;8.596;2023-12-20T05:45:52;0.65;;;0.65;;
21661;SDS011;10992;48.170;8.596;2023-12-20T05:48:18;1.10;;;0.50;;
21661;SDS011;10992;48.170;8.596;2023-12-20T05:50:45;0.52;;;0.52;;
21661;SDS011;10992;48.170;8.596;2023-12-20T05:53:12;0.85;;;0.50;;
21661;SDS011;10992;48.170;8.596;2023-12-20T05:55:39;4.78;;;0.70;;
21661;SDS011;10992;48.170;8.596;2023-12-20T05:58:06;1.80;;;0.70;;
21661;SDS011;10992;48.170;8.596;2023-12-20T06:00:33;0.80;;;0.60;;
21661;SDS011;10992;48.170;8.596;2023-12-20T06:03:00;0.82;;;0.70;;
21661;SDS011;10992;48.170;8.596;2023-12-20T06:05:27;2.30;;;1.00;;
21661;SDS011;10992;48.170;8.596;2023-12-20T06:07:54;1.95;;;0.80;;
21661;SDS011;10992;48.170;8.596;2023-12-20T06:10:23;0.50;;;0.50;;
21661;SDS011;10992;48.170;8.596;2023-12-20T06:12:50;1.65;;;0.73;;
21661;SDS011;10992;48.170;8.596;2023-12-20T06:15:17;0.70;;;0.70;;
21661;SDS011;10992;48.170;8.596;2023-12-20T06:17:45;1.70;;;0.77;;
21661;SDS011;10992;48.170;8.596;2023-12-20T06:20:15;1.33;;;0.95;;
21661;SDS011;10992;48.170;8.596;2023-12-20T06:22:42;3.28;;;1.08;;
21661;SDS011;10992;48.170;8.596;2023-12-20T06:25:09;3.65;;;1.88;;
21661;SDS011;10992;48.170;8.596;2023-12-20T06:27:36;1.70;;;1.40;;
21661;SDS011;10992;48.170;8.596;2023-12-20T06:30:03;2.97;;;1.52;;
21661;SDS011;10992;48.170;8.596;2023-12-20T06:32:30;2.95;;;1.83;;
21661;SDS011;10992;48.170;8.596;2023-12-20T06:34:57;6.35;;;2.47;;
21661;SDS011;10992;48.170;8.596;2023-12-20T06:37:24;5.28;;;2.10;;
21661;SDS011;10992;48.170;8.596;2023-12-20T06:39:51;4.72;;;1.48;;
21661;SDS011;10992;48.170;8.596;2023-12-20T06:42:18;2.65;;;0.80;;
21661;SDS011;10992;48.170;8.596;2023-12-20T06:44:45;1.15;;;0.98;;
21661;SDS011;10992;48.170;8.596;2023-12-20T06:47:11;1.60;;;0.80;;
21661;SDS011;10992;48.170;8.596;2023-12-20T06:49:40;3.03;;;0.63;;
21661;SDS011;10992;48.170;8.596;2023-12-20T06:52:07;0.68;;;0.68;;
21661;SDS011;10992;48.170;8.596;2023-12-20T06:54:35;1.63;;;0.60;;
21661;SDS011;10992;48.170;8.596;2023-12-20T06:57:02;0.88;;;0.85;;
21661;SDS011;10992;48.170;8.596;2023-12-20T06:59:30;2.00;;;1.02;;
21661;SDS011;10992;48.170;8.596;2023-12-20T07:01:57;6.03;;;2.03;;
21661;SDS011;10992;48.170;8.596;2023-12-20T07:04:25;2.63;;;1.42;;
21661;SDS011;10992;48.170;8.596;2023-12-20T07:06:52;3.47;;;2.38;;
21661;SDS011;10992;48.170;8.596;2023-12-20T07:09:23;2.38;;;1.75;;
21661;SDS011;10992;48.170;8.596;2023-12-20T07:11:49;6.07;;;2.63;;
21661;SDS011;10992;48.170;8.596;2023-12-20T07:14:16;3.72;;;1.92;;
21661;SDS011;10992;48.170;8.596;2023-12-20T07:16:45;1.42;;;1.10;;
21661;SDS011;10992;48.170;8.596;2023-12-20T07:19:13;1.35;;;1.10;;
21661;SDS011;10992;48.170;8.596;2023-12-20T07:21:40;2.97;;;2.30;;
21661;SDS011;10992;48.170;8.596;2023-12-20T07:24:07;3.55;;;2.28;;
21661;SDS011;10992;48.170;8.596;2023-12-20T07:26:34;11.82;;;8.00;;
21661;SDS011;10992;48.170;8.596;2023-12-20T07:29:01;13.80;;;9.88;;
21661;SDS011;10992;48.170;8.596;2023-12-20T07:31:30;29.60;;;16.95;;
21661;SDS011;10992;48.170;8.596;2023-12-20T07:33:57;18.88;;;12.43;;
21661;SDS011;10992;48.170;8.596;2023-12-20T07:36:24;10.15;;;6.45;;
21661;SDS011;10992;48.170;8.596;2023-12-20T07:38:51;4.13;;;3.10;;
21661;SDS011;10992;48.170;8.596;2023-12-20T07:41:18;4.80;;;3.17;;
21661;SDS011;10992;48.170;8.596;2023-12-20T07:43:48;3.55;;;1.42;;
21661;SDS011;10992;48.170;8.596;2023-12-20T07:46:16;3.17;;;1.83;;
21661;SDS011;10992;48.170;8.596;2023-12-20T07:48:44;2.33;;;1.67;;
21661;SDS011;10992;48.170;8.596;2023-12-20T07:51:13;1.77;;;1.38;;
21661;SDS011;10992;48.170;8.596;2023-12-20T07:53:40;3.92;;;2.40;;
21661;SDS011;10992;48.170;8.596;2023-12-20T07:56:16;3.58;;;1.90;;
21661;SDS011;10992;48.170;8.596;2023-12-20T07:58:44;2.80;;;1.98;;
21661;SDS011;10992;48.170;8.596;2023-12-20T08:01:18;2.90;;;1.42;;
21661;SDS011;10992;48.170;8.596;2023-12-20T08:03:46;4.00;;;1.20;;
21661;SDS011;10992;48.170;8.596;2023-12-20T08:06:15;2.15;;;1.38;;
21661;SDS011;10992;48.170;8.596;2023-12-20T08:08:43;2.50;;;1.55;;
21661;SDS011;10992;48.170;8.596;2023-12-20T08:11:10;1.27;;;1.17;;
21661;SDS011;10992;48.170;8.596;2023-12-20T08:13:37;2.55;;;2.35;;
21661;SDS011;10992;48.170;8.596;2023-12-20T08:16:04;2.50;;;1.63;;
21661;SDS011;10992;48.170;8.596;2023-12-20T08:18:32;3.25;;;1.60;;
21661;SDS011;10992;48.170;8.596;2023-12-20T08:21:00;2.03;;;1.13;;
21661;SDS011;10992;48.170;8.596;2023-12-20T08:23:27;1.85;;;1.20;;
21661;SDS011;10992;48.170;8.596;2023-12-20T08:25:57;2.35;;;1.10;;
21661;SDS011;10992;48.170;8.596;2023-12-20T08:28:24;1.33;;;1.02;;
21661;SDS011;10992;48.170;8.596;2023-12-20T08:30:51;1.20;;;1.10;;
21661;SDS011;10992;48.170;8.596;2023-12-20T08:33:20;3.50;;;1.55;;
21661;SDS011;10992;48.170;8.596;2023-12-20T08:35:47;1.80;;;1.35;;
21661;SDS011;10992;48.170;8.596;2023-12-20T08:38:17;2.20;;;1.30;;
21661;SDS011;10992;48.170;8.596;2023-12-20T08:40:44;1.80;;;1.50;;
21661;SDS011;10992;48.170;8.596;2023-12-20T08:43:11;2.88;;;1.40;;
21661;SDS011;10992;48.170;8.596;2023-12-20T08:45:39;4.63;;;1.73;;
21661;SDS011;10992;48.170;8.596;2023-12-20T08:48:06;2.30;;;1.83;;
21661;SDS011;10992;48.170;8.596;2023-12-20T08:50:35;3.60;;;1.48;;
21661;SDS011;10992;48.170;8.596;2023-12-20T08:53:03;2.00;;;1.80;;
21661;SDS011;10992;48.170;8.596;2023-12-20T08:55:30;2.25;;;1.45;;
21661;SDS011;10992;48.170;8.596;2023-12-20T08:57:58;1.67;;;1.58;;
21661;SDS011;10992;48.170;8.596;2023-12-20T09:00:25;1.40;;;1.30;;
21661;SDS011;10992;48.170;8.596;2023-12-20T09:02:54;1.70;;;1.25;;
21661;SDS011;10992;48.170;8.596;2023-12-20T09:05:21;1.55;;;1.30;;
21661;SDS011;10992;48.170;8.596;2023-12-20T09:07:50;1.42;;;1.30;;
21661;SDS011;10992;48.170;8.596;2023-12-20T09:10:17;1.95;;;1.38;;
21661;SDS011;10992;48.170;8.596;2023-12-20T09:12:52;1.90;;;1.60;;
21661;SDS011;10992;48.170;8.596;2023-12-20T09:15:23;4.40;;;1.67;;
21661;SDS011;10992;48.170;8.596;2023-12-20T09:17:50;2.45;;;1.70;;
21661;SDS011;10992;48.170;8.596;2023-12-20T09:20:17;2.45;;;1.67;;
21661;SDS011;10992;48.170;8.596;2023-12-20T09:22:45;1.58;;;1.38;;
21661;SDS011;10992;48.170;8.596;2023-12-20T09:25:12;1.65;;;1.13;;
21661;SDS011;10992;48.170;8.596;2023-12-20T09:27:41;2.47;;;1.30;;
21661;SDS011;10992;48.170;8.596;2023-12-20T09:30:08;0.82;;;0.70;;
21661;SDS011;10992;48.170;8.596;2023-12-20T09:32:36;0.93;;;0.93;;
21661;SDS011;10992;48.170;8.596;2023-12-20T09:35:03;1.27;;;1.10;;
21661;SDS011;10992;48.170;8.596;2023-12-20T09:37:32;1.30;;;1.10;;
21661;SDS011;10992;48.170;8.596;2023-12-20T09:39:59;1.75;;;1.25;;
21661;SDS011;10992;48.170;8.596;2023-12-20T09:42:35;1.63;;;1.25;;
21661;SDS011;10992;48.170;8.596;2023-12-20T09:45:10;1.60;;;1.30;;
21661;SDS011;10992;48.170;8.596;2023-12-20T09:47:42;1.45;;;1.23;;
21661;SDS011;10992;48.170;8.596;2023-12-20T09:50:42;1.25;;;1.15;;
21661;SDS011;10992;48.170;8.596;2023-12-20T09:53:17;1.10;;;1.00;;
21661;SDS011;10992;48.170;8.596;2023-12-20T09:55:45;1.75;;;1.17;;
21661;SDS011;10992;48.170;8.596;2023-12-20T09:58:13;0.88;;;0.77;;
21661;SDS011;10992;48.170;8.596;2023-12-20T10:00:40;1.05;;;0.70;;
21661;SDS011;10992;48.170;8.596;2023-12-20T10:03:07;0.75;;;0.70;;
21661;SDS011;10992;48.170;8.596;2023-12-20T10:05:36;0.60;;;0.60;;
21661;SDS011;10992;48.170;8.596;2023-12-20T10:08:06;0.80;;;0.77;;
21661;SDS011;10992;48.170;8.596;2023-12-20T10:10:33;0.65;;;0.65;;
21661;SDS011;10992;48.170;8.596;2023-12-20T10:13:11;0.70;;;0.70;;
21661;SDS011;10992;48.170;8.596;2023-12-20T10:15:40;2.15;;;0.70;;
21661;SDS011;10992;48.170;8.596;2023-12-20T10:18:08;1.63;;;1.10;;
21661;SDS011;10992;48.170;8.596;2023-12-20T10:20:35;1.77;;;1.20;;
21661;SDS011;10992;48.170;8.596;2023-12-20T10:23:03;1.67;;;1.15;;
21661;SDS011;10992;48.170;8.596;2023-12-20T10:25:30;3.38;;;1.38;;
21661;SDS011;10992;48.170;8.596;2023-12-20T10:28:11;1.98;;;1.45;;
21661;SDS011;10992;48.170;8.596;2023-12-20T10:30:39;1.42;;;1.02;;
21661;SDS011;10992;48.170;8.596;2023-12-20T10:33:08;1.95;;;1.38;;
21661;SDS011;10992;48.170;8.596;2023-12-20T10:35:37;1.23;;;1.13;;
21661;SDS011;10992;48.170;8.596;2023-12-20T10:38:11;1.60;;;1.10;;
21661;SDS011;10992;48.170;8.596;2023-12-20T10:40:41;2.28;;;1.00;;
21661;SDS011;10992;48.170;8.596;2023-12-20T10:43:09;1.63;;;1.20;;
21661;SDS011;10992;48.170;8.596;2023-12-20T10:45:37;1.58;;;0.75;;
21661;SDS011;10992;48.170;8.596;2023-12-20T10:48:05;1.30;;;0.95;;
21661;SDS011;10992;48.170;8.596;2023-12-20T10:50:32;1.63;;;1.27;;
21661;SDS011;10992;48.170;8.596;2023-12-20T10:53:02;2.10;;;1.30;;
21661;SDS011;10992;48.170;8.596;2023-12-20T10:55:30;1.42;;;1.10;;
21661;SDS011;10992;48.170;8.596;2023-12-20T10:58:00;2.05;;;0.93;;
21661;SDS011;10992;48.170;8.596;2023-12-20T11:00:29;2.20;;;1.33;;
21661;SDS011;10992;48.170;8.596;2023-12-20T11:03:01;1.40;;;1.20;;
21661;SDS011;10992;48.170;8.596;2023-12-20T11:05:49;2.78;;;1.35;;
21661;SDS011;10992;48.170;8.596;2023-12-20T11:08:35;1.90;;;1.50;;
21661;SDS011;10992;48.170;8.596;2023-12-20T11:11:26;1.50;;;1.35;;
21661;SDS011;10992;48.170;8.596;2023-12-20T11:14:00;2.72;;;1.50;;
21661;SDS011;10992;48.170;8.596;2023-12-20T11:16:32;2.20;;;1.35;;
21661;SDS011;10992;48.170;8.596;2023-12-20T11:19:13;2.80;;;2.13;;
21661;SDS011;10992;48.170;8.596;2023-12-20T11:21:41;3.65;;;1.60;;
21661;SDS011;10992;48.170;8.596;2023-12-20T11:24:09;3.17;;;1.80;;
21661;SDS011;10992;48.170;8.596;2023-12-20T11:26:36;2.45;;;1.65;;
21661;SDS011;10992;48.170;8.596;2023-12-20T11:37:25;2.55;;;1.30;;
21661;SDS011;10992;48.170;8.596;2023-12-20T11:42:37;3.03;;;1.40;;
21661;SDS011;10992;48.170;8.596;2023-12-20T11:45:16;2.33;;;1.52;;
21661;SDS011;10992;48.170;8.596;2023-12-20T11:47:55;3.63;;;1.30;;
21661;SDS011;10992;48.170;8.596;2023-12-20T11:50:24;2.53;;;1.27;;
21661;SDS011;10992;48.170;8.596;2023-12-20T11:52:53;3.72;;;1.38;;
21661;SDS011;10992;48.170;8.596;2023-12-20T11:55:21;2.58;;;1.10;;
21661;SDS011;10992;48.170;8.596;2023-12-20T11:57:50;2.70;;;1.30;;
21661;SDS011;10992;48.170;8.596;2023-12-20T12:00:18;3.70;;;1.60;;
21661;SDS011;10992;48.170;8.596;2023-12-20T12:02:55;3.95;;;1.20;;
21661;SDS011;10992;48.170;8.596;2023-12-20T12:05:25;2.13;;;1.17;;
21661;SDS011;10992;48.170;8.596;2023-12-20T12:07:52;1.85;;;1.17;;
21661;SDS011;10992;48.170;8.596;2023-12-20T12:10:19;3.42;;;1.52;;
21661;SDS011;10992;48.170;8.596;2023-12-20T12:12:47;2.90;;;1.50;;
21661;SDS011;10992;48.170;8.596;2023-12-20T12:15:14;3.22;;;1.60;;
21661;SDS011;10992;48.170;8.596;2023-12-20T12:17:42;3.30;;;1.63;;
21661;SDS011;10992;48.170;8.596;2023-12-20T12:20:10;4.20;;;1.70;;
21661;SDS011;10992;48.170;8.596;2023-12-20T12:22:37;3.53;;;1.77;;
21661;SDS011;10992;48.170;8.596;2023-12-20T12:25:11;4.18;;;2.03;;
21661;SDS011;10992;48.170;8.596;2023-12-20T12:27:40;5.47;;;2.17;;
21661;SDS011;10992;48.170;8.596;2023-12-20T12:30:08;3.88;;;2.00;;
21661;SDS011;10992;48.170;8.596;2023-12-20T12:32:36;3.28;;;1.60;;
21661;SDS011;10992;48.170;8.596;2023-12-20T12:35:04;4.40;;;2.00;;
21661;SDS011;10992;48.170;8.596;2023-12-20T12:37:37;4.13;;;2.10;;
21661;SDS011;10992;48.170;8.596;2023-12-20T12:40:15;8.35;;;2.13;;
21661;SDS011;10992;48.170;8.596;2023-12-20T12:42:44;6.05;;;2.25;;
21661;SDS011;10992;48.170;8.596;2023-12-20T12:45:12;4.13;;;2.22;;
21661;SDS011;10992;48.170;8.596;2023-12-20T12:47:39;3.65;;;2.10;;
21661;SDS011;10992;48.170;8.596;2023-12-20T12:50:06;8.55;;;2.08;;
21661;SDS011;10992;48.170;8.596;2023-12-20T12:52:35;7.05;;;3.67;;
21661;SDS011;10992;48.170;8.596;2023-12-20T12:55:02;7.90;;;3.92;;
21661;SDS011;10992;48.170;8.596;2023-12-20T12:57:31;5.40;;;3.03;;
21661;SDS011;10992;48.170;8.596;2023-12-20T12:59:58;8.15;;;3.20;;
21661;SDS011;10992;48.170;8.596;2023-12-20T13:02:25;5.10;;;3.03;;
21661;SDS011;10992;48.170;8.596;2023-12-20T13:04:52;7.90;;;2.42;;
21661;SDS011;10992;48.170;8.596;2023-12-20T13:07:19;4.30;;;2.38;;
21661;SDS011;10992;48.170;8.596;2023-12-20T13:09:46;5.65;;;3.20;;
21661;SDS011;10992;48.170;8.596;2023-12-20T13:12:16;5.82;;;2.80;;
21661;SDS011;10992;48.170;8.596;2023-12-20T13:14:43;5.25;;;2.15;;
21661;SDS011;10992;48.170;8.596;2023-12-20T13:17:11;9.40;;;2.08;;
21661;SDS011;10992;48.170;8.596;2023-12-20T13:19:39;8.82;;;2.53;;
21661;SDS011;10992;48.170;8.596;2023-12-20T13:22:06;5.22;;;2.05;;
21661;SDS011;10992;48.170;8.596;2023-12-20T13:24:33;7.13;;;2.47;;
21661;SDS011;10992;48.170;8.596;2023-12-20T13:27:00;6.10;;;2.35;;
21661;SDS011;10992;48.170;8.596;2023-12-20T13:29:27;7.20;;;3.58;;
21661;SDS011;10992;48.170;8.596;2023-12-20T13:31:54;6.15;;;2.63;;
21661;SDS011;10992;48.170;8.596;2023-12-20T13:34:21;11.10;;;4.15;;
21661;SDS011;10992;48.170;8.596;2023-12-20T13:36:48;10.70;;;2.95;;
21661;SDS011;10992;48.170;8.596;2023-12-20T13:39:19;7.15;;;2.50;;
21661;SDS011;10992;48.170;8.596;2023-12-20T13:41:46;8.38;;;2.38;;
21661;SDS011;10992;48.170;8.596;2023-12-20T13:44:13;9.07;;;2.97;;
21661;SDS011;10992;48.170;8.596;2023-12-20T13:46:40;6.97;;;2.47;;
21661;SDS011;10992;48.170;8.596;2023-12-20T13:49:08;6.35;;;2.28;;
21661;SDS011;10992;48.170;8.596;2023-12-20T13:51:35;3.65;;;1.60;;
21661;SDS011;10992;48.170;8.596;2023-12-20T13:54:02;4.90;;;1.98;;
21661;SDS011;10992;48.170;8.596;2023-12-20T13:56:29;6.10;;;2.30;;
21661;SDS011;10992;48.170;8.596;2023-12-20T13:58:56;4.68;;;1.90;;
21661;SDS011;10992;48.170;8.596;2023-12-20T14:01:23;5.03;;;2.20;;
21661;SDS011;10992;48.170;8.596;2023-12-20T14:03:50;6.68;;;2.25;;
21661;SDS011;10992;48.170;8.596;2023-12-20T14:06:17;7.50;;;2.15;;
21661;SDS011;10992;48.170;8.596;2023-12-20T14:08:44;6.95;;;1.80;;
21661;SDS011;10992;48.170;8.596;2023-12-20T14:11:11;5.90;;;1.80;;
21661;SDS011;10992;48.170;8.596;2023-12-20T14:13:38;5.05;;;1.80;;
21661;SDS011;10992;48.170;8.596;2023-12-20T14:16:05;5.63;;;1.90;;
21661;SDS011;10992;48.170;8.596;2023-12-20T14:18:32;8.38;;;3.00;;
21661;SDS011;10992;48.170;8.596;2023-12-20T14:20:59;7.55;;;1.73;;
21661;SDS011;10992;48.170;8.596;2023-12-20T14:23:26;2.55;;;1.55;;
21661;SDS011;10992;48.170;8.596;2023-12-20T14:25:52;5.57;;;2.10;;
21661;SDS011;10992;48.170;8.596;2023-12-20T14:28:22;4.55;;;2.22;;
21661;SDS011;10992;48.170;8.596;2023-12-20T14:30:49;4.50;;;1.77;;
21661;SDS011;10992;48.170;8.596;2023-12-20T14:33:16;6.68;;;2.03;;
21661;SDS011;10992;48.170;8.596;2023-12-20T14:35:46;4.85;;;2.17;;
21661;SDS011;10992;48.170;8.596;2023-12-20T14:38:13;6.47;;;1.98;;
21661;SDS011;10992;48.170;8.596;2023-12-20T14:40:41;5.25;;;2.80;;
21661;SDS011;10992;48.170;8.596;2023-12-20T14:43:08;6.53;;;2.13;;
21661;SDS011;10992;48.170;8.596;2023-12-20T14:45:35;5.68;;;2.10;;
21661;SDS011;10992;48.170;8.596;2023-12-20T14:48:04;8.13;;;2.10;;
21661;SDS011;10992;48.170;8.596;2023-12-20T14:50:31;5.60;;;1.70;;
21661;SDS011;10992;48.170;8.596;2023-12-20T14:52:58;6.55;;;2.70;;
21661;SDS011;10992;48.170;8.596;2023-12-20T14:55:26;6.30;;;2.45;;
21661;SDS011;10992;48.170;8.596;2023-12-20T14:57:55;7.75;;;2.83;;
21661;SDS011;10992;48.170;8.596;2023-12-20T15:00:22;7.72;;;3.45;;
21661;SDS011;10992;48.170;8.596;2023-12-20T15:02:49;8.45;;;3.00;;
21661;SDS011;10992;48.170;8.596;2023-12-20T15:05:16;11.38;;;3.10;;